Time;durP1;ratioP1;P1;durP2;ratioP2;P2;SDS_P1;SDS_P2;PMS_P1;PMS_P2;Temp;Humidity;BMP_temperature;BMP_pressure;BME280_temperature;BME280_humidity;BME280_pressure;Samples;Min_cycle;Max_cycle;Signal;HPM_P1;HPM_P2
2023/10/04 00:01:16;;;;;;;5.50;2.30;;;13.10;99.90;;;;;;4973297;28;20061;-82
2023/10/04 00:03:43;;;;;;;4.93;2.05;;;13.00;99.90;;;;;;4974456;28;20446;-83
2023/10/04 00:06:09;;;;;;;5.20;1.65;;;13.00;99.90;;;;;;4950463;28;20491;-83
2023/10/04 00:08:35;;;;;;;7.15;2.08;;;13.00;99.90;;;;;;4956835;28;20105;-83
2023/10/04 00:11:04;;;;;;;5.57;2.22;;;13.00;99.90;;;;;;4956193;28;20034;-82
2023/10/04 00:13:31;;;;;;;5.78;1.75;;;13.00;99.90;;;;;;4967052;28;20046;-82
2023/10/04 00:15:56;;;;;;;4.72;1.98;;;13.00;99.90;;;;;;4930903;28;20126;-83
2023/10/04 00:18:22;;;;;;;6.75;2.22;;;13.00;99.90;;;;;;4940649;28;20653;-83
2023/10/04 00:20:48;;;;;;;7.03;2.15;;;13.10;99.90;;;;;;4958371;28;20097;-82
2023/10/04 00:23:14;;;;;;;8.18;1.95;;;13.10;99.90;;;;;;4956670;28;20439;-83
2023/10/04 00:25:40;;;;;;;7.30;2.25;;;13.10;99.90;;;;;;4974208;28;20042;-82
2023/10/04 00:28:07;;;;;;;5.60;2.00;;;13.10;99.90;;;;;;4933007;29;20043;-83
2023/10/04 00:30:33;;;;;;;6.88;1.90;;;13.20;99.90;;;;;;4957149;28;20137;-82
2023/10/04 00:33:02;;;;;;;6.85;2.00;;;13.20;99.90;;;;;;4972715;28;20141;-82
2023/10/04 00:35:28;;;;;;;7.15;2.08;;;13.20;99.90;;;;;;4957839;28;20789;-82
2023/10/04 00:37:57;;;;;;;7.55;2.42;;;13.20;99.90;;;;;;4972669;28;20051;-82
2023/10/04 00:40:27;;;;;;;7.40;2.10;;;13.10;99.90;;;;;;4972470;28;20035;-81
2023/10/04 00:42:55;;;;;;;5.32;2.08;;;13.10;99.90;;;;;;4952856;28;20142;-82
2023/10/04 00:45:22;;;;;;;7.97;2.08;;;13.10;99.90;;;;;;4952955;29;20039;-82
2023/10/04 00:47:51;;;;;;;5.85;2.03;;;13.10;99.90;;;;;;4968462;28;20126;-82
2023/10/04 00:50:22;;;;;;;4.35;2.00;;;13.10;99.90;;;;;;4955701;28;20045;-82
2023/10/04 00:52:54;;;;;;;6.55;1.95;;;13.10;99.90;;;;;;4971939;28;20557;-82
2023/10/04 00:55:21;;;;;;;7.35;2.33;;;13.10;99.90;;;;;;4955969;28;20509;-82
2023/10/04 00:57:49;;;;;;;8.18;2.00;;;13.10;99.90;;;;;;4940408;28;20057;-82
2023/10/04 01:00:17;;;;;;;7.97;2.17;;;13.10;99.90;;;;;;4956539;28;20046;-82
2023/10/04 01:02:44;;;;;;;6.93;2.10;;;13.10;99.90;;;;;;4972128;28;20410;-82
2023/10/04 01:05:11;;;;;;;6.53;2.13;;;13.10;99.90;;;;;;4953484;28;20031;-82
2023/10/04 01:07:39;;;;;;;6.50;2.08;;;13.10;99.90;;;;;;4988284;28;20102;-83
2023/10/04 01:10:14;;;;;;;6.10;2.38;;;13.10;99.90;;;;;;4956449;28;20074;-83
2023/10/04 01:12:42;;;;;;;7.68;2.35;;;13.10;99.90;;;;;;4956937;28;20050;-82
2023/10/04 01:15:30;;;;;;;6.00;2.10;;;13.10;99.90;;;;;;4971986;28;20042;-82
2023/10/04 01:18:11;;;;;;;7.85;2.10;;;13.10;99.90;;;;;;4970072;28;20039;-83
2023/10/04 01:20:39;;;;;;;5.07;1.88;;;13.00;99.90;;;;;;4954953;28;20227;-83
2023/10/04 01:23:06;;;;;;;8.15;2.28;;;13.00;99.90;;;;;;4971994;28;20042;-82
2023/10/04 01:25:39;;;;;;;7.97;3.38;;;13.00;99.90;;;;;;4972023;28;20039;-82
2023/10/04 01:28:12;;;;;;;6.47;2.08;;;13.00;99.90;;;;;;4955874;28;20109;-82
2023/10/04 01:30:41;;;;;;;8.50;2.50;;;13.00;99.90;;;;;;4969039;28;20121;-82
2023/10/04 01:33:15;;;;;;;5.55;2.30;;;13.00;99.90;;;;;;4973270;28;20039;-82
2023/10/04 01:35:55;;;;;;;10.15;2.38;;;13.00;99.90;;;;;;4971750;28;20133;-83
2023/10/04 01:38:25;;;;;;;6.18;2.10;;;13.00;99.90;;;;;;4971423;28;20047;-83
2023/10/04 01:40:52;;;;;;;8.55;2.25;;;12.90;99.90;;;;;;4955694;28;20043;-83
2023/10/04 01:43:19;;;;;;;7.57;2.40;;;12.90;99.90;;;;;;4971550;28;20045;-82
2023/10/04 01:45:53;;;;;;;8.90;2.50;;;12.90;99.90;;;;;;4955849;28;20097;-82
2023/10/04 01:48:22;;;;;;;10.95;2.35;;;12.90;99.90;;;;;;4940622;28;20043;-83
2023/10/04 01:50:52;;;;;;;8.93;2.42;;;12.90;99.90;;;;;;4955985;28;20121;-83
2023/10/04 01:53:24;;;;;;;7.75;2.80;;;12.90;99.90;;;;;;4972128;28;20053;-82
2023/10/04 01:55:50;;;;;;;10.15;2.70;;;12.90;99.90;;;;;;4969189;28;20039;-83
2023/10/04 01:58:21;;;;;;;10.18;2.47;;;12.90;99.90;;;;;;4972139;28;20042;-83
2023/10/04 02:00:47;;;;;;;8.93;2.42;;;12.90;99.90;;;;;;4971586;28;20053;-83
2023/10/04 02:03:14;;;;;;;8.05;2.20;;;12.80;99.90;;;;;;4973037;28;20054;-82
2023/10/04 02:05:40;;;;;;;6.50;2.50;;;12.80;99.90;;;;;;4971762;28;20110;-82
2023/10/04 02:08:12;;;;;;;9.20;2.20;;;12.80;99.90;;;;;;4971801;28;20043;-83
2023/10/04 02:10:41;;;;;;;8.05;2.40;;;12.80;99.90;;;;;;4952798;29;20047;-83
2023/10/04 02:13:08;;;;;;;9.90;3.15;;;12.80;99.90;;;;;;4955716;28;20053;-83
2023/10/04 02:15:35;;;;;;;5.78;2.00;;;12.90;99.90;;;;;;4971159;28;20081;-83
2023/10/04 02:18:01;;;;;;;7.72;2.40;;;12.80;99.90;;;;;;4954241;28;20126;-83
2023/10/04 02:20:31;;;;;;;8.43;2.63;;;12.80;99.90;;;;;;4955314;28;20074;-81
2023/10/04 02:22:59;;;;;;;7.55;2.25;;;12.80;99.90;;;;;;4971469;28;20055;-83
2023/10/04 02:25:26;;;;;;;11.25;2.55;;;12.80;99.90;;;;;;4963666;28;20093;-82
2023/10/04 02:27:52;;;;;;;8.55;2.40;;;12.80;99.90;;;;;;4972470;28;20042;-83
2023/10/04 02:30:26;;;;;;;6.18;2.20;;;12.80;99.90;;;;;;4955100;28;20054;-83
2023/10/04 02:32:53;;;;;;;5.75;2.10;;;12.70;99.90;;;;;;4956005;28;20039;-83
2023/10/04 02:35:24;;;;;;;9.20;2.40;;;12.70;99.90;;;;;;4974732;28;20050;-83
2023/10/04 02:37:54;;;;;;;7.22;2.33;;;12.70;99.90;;;;;;4958827;28;20082;-82
2023/10/04 02:40:27;;;;;;;7.60;2.30;;;12.70;99.90;;;;;;4959323;28;20047;-82
2023/10/04 02:42:55;;;;;;;9.27;2.40;;;12.70;99.90;;;;;;4955309;28;20390;-82
2023/10/04 02:45:24;;;;;;;8.60;2.60;;;12.70;99.90;;;;;;4952941;28;20030;-82
2023/10/04 02:47:51;;;;;;;9.60;2.67;;;12.80;99.90;;;;;;4954855;29;20073;-82
2023/10/04 02:50:18;;;;;;;9.05;2.40;;;12.80;99.90;;;;;;4964819;28;20043;-83
2023/10/04 02:52:45;;;;;;;8.27;2.28;;;12.80;99.90;;;;;;4975871;28;20047;-82
2023/10/04 02:55:15;;;;;;;9.45;2.33;;;12.80;99.90;;;;;;4958458;28;20157;-83
2023/10/04 02:57:42;;;;;;;10.85;2.70;;;12.80;99.90;;;;;;4974449;28;20055;-83
2023/10/04 03:00:15;;;;;;;7.65;2.47;;;12.80;99.90;;;;;;4974226;28;20051;-83
2023/10/04 03:02:45;;;;;;;13.02;2.85;;;12.80;99.90;;;;;;4974191;28;20051;-83
2023/10/04 03:05:12;;;;;;;5.68;2.40;;;12.80;99.90;;;;;;4974650;28;20368;-83
2023/10/04 03:07:39;;;;;;;6.97;2.35;;;12.80;99.90;;;;;;4974047;28;20062;-82
2023/10/04 03:10:06;;;;;;;8.63;2.80;;;12.90;99.90;;;;;;4975423;28;20070;-82
2023/10/04 03:12:32;;;;;;;11.40;3.08;;;12.80;99.90;;;;;;4974344;28;20041;-83
2023/10/04 03:14:57;;;;;;;7.47;3.13;;;12.80;99.90;;;;;;4967050;28;20042;-83
2023/10/04 03:17:23;;;;;;;7.28;2.85;;;12.90;99.90;;;;;;4973946;28;20034;-83
2023/10/04 03:19:49;;;;;;;7.70;2.47;;;12.90;99.90;;;;;;4958239;28;20043;-82
2023/10/04 03:22:22;;;;;;;10.38;2.80;;;12.90;99.90;;;;;;4958280;28;20038;-83
2023/10/04 03:24:49;;;;;;;8.60;2.75;;;12.90;99.90;;;;;;4973858;28;20074;-82
2023/10/04 03:27:15;;;;;;;8.00;3.10;;;12.90;99.90;;;;;;4959690;28;20038;-82
2023/10/04 03:29:41;;;;;;;8.10;2.40;;;13.00;99.90;;;;;;4974268;28;20041;-82
2023/10/04 03:32:06;;;;;;;8.80;2.50;;;12.90;99.90;;;;;;4957549;28;20487;-83
2023/10/04 03:34:32;;;;;;;9.65;2.80;;;12.90;99.90;;;;;;4974021;28;20045;-83
2023/10/04 03:37:08;;;;;;;9.70;3.20;;;12.90;99.90;;;;;;4958146;28;20721;-83
2023/10/04 03:39:39;;;;;;;12.35;2.85;;;12.90;99.90;;;;;;4957536;28;20117;-83
2023/10/04 03:42:05;;;;;;;7.95;2.83;;;12.90;99.90;;;;;;4973494;28;20101;-83
2023/10/04 03:44:31;;;;;;;7.43;2.40;;;12.90;99.90;;;;;;4973178;28;20043;-83
2023/10/04 03:46:57;;;;;;;10.10;2.95;;;12.90;99.90;;;;;;4957537;28;20432;-83
2023/10/04 03:49:24;;;;;;;10.18;2.53;;;12.90;99.90;;;;;;4973606;28;20043;-83
2023/10/04 03:51:53;;;;;;;9.68;2.75;;;12.90;99.90;;;;;;4957427;28;20043;-81
2023/10/04 03:54:21;;;;;;;10.82;3.05;;;12.80;99.90;;;;;;4973493;28;20046;-83
2023/10/04 03:56:47;;;;;;;9.38;2.75;;;12.80;99.90;;;;;;4955775;28;20046;-83
2023/10/04 03:59:13;;;;;;;9.05;2.47;;;12.80;99.90;;;;;;4957576;28;20833;-82
2023/10/04 04:01:39;;;;;;;7.85;2.55;;;12.80;99.90;;;;;;4957308;28;20043;-83
2023/10/04 04:04:06;;;;;;;7.13;2.47;;;12.80;99.90;;;;;;4956884;28;20066;-82
2023/10/04 04:06:32;;;;;;;8.48;2.47;;;12.70;99.90;;;;;;4956579;28;20045;-83
2023/10/04 04:09:01;;;;;;;5.93;2.58;;;12.70;99.90;;;;;;4956597;28;20043;-83
2023/10/04 04:11:27;;;;;;;8.50;3.10;;;12.60;99.90;;;;;;4956831;28;20045;-82
2023/10/04 04:13:56;;;;;;;9.48;3.13;;;12.60;99.90;;;;;;4940769;28;20137;-83
2023/10/04 04:16:21;;;;;;;8.57;2.80;;;12.60;99.90;;;;;;4956732;28;20045;-83
2023/10/04 04:18:47;;;;;;;9.70;3.03;;;12.60;99.90;;;;;;4941561;28;20051;-83
2023/10/04 04:21:14;;;;;;;10.50;2.70;;;12.50;99.90;;;;;;4956899;28;20134;-82
2023/10/04 04:23:41;;;;;;;10.90;3.58;;;12.50;99.90;;;;;;4972589;28;20046;-83
2023/10/04 04:26:11;;;;;;;8.90;2.95;;;12.50;99.90;;;;;;4957125;28;20126;-83
2023/10/04 04:28:36;;;;;;;11.13;2.92;;;12.50;99.90;;;;;;4972679;28;20093;-83
2023/10/04 04:31:09;;;;;;;10.75;2.90;;;12.50;99.90;;;;;;4956548;28;20109;-83
2023/10/04 04:33:35;;;;;;;11.23;2.78;;;12.50;99.90;;;;;;4957529;28;20042;-83
2023/10/04 04:36:05;;;;;;;9.55;3.45;;;12.50;99.90;;;;;;4956296;28;20069;-83
2023/10/04 04:38:33;;;;;;;13.32;3.30;;;12.40;99.90;;;;;;4972782;28;20061;-82
2023/10/04 04:41:04;;;;;;;11.57;2.78;;;12.50;99.90;;;;;;4938426;29;20109;-82
2023/10/04 04:43:36;;;;;;;8.68;2.92;;;12.50;99.90;;;;;;4968245;28;20057;-83
2023/10/04 04:46:08;;;;;;;8.02;3.58;;;12.40;99.90;;;;;;4971953;28;20467;-83
2023/10/04 04:48:36;;;;;;;;;;;12.40;99.90;;;;;;4972749;28;20077;-83
2023/10/04 04:51:10;;;;;;;7.80;3.30;;;12.40;99.90;;;;;;4956745;28;19922;-83
2023/10/04 04:53:43;;;;;;;9.60;3.03;;;12.30;99.90;;;;;;4956756;28;20038;-83
2023/10/04 04:56:13;;;;;;;12.57;3.00;;;12.30;99.90;;;;;;4946986;28;20053;-81
2023/10/04 04:58:44;;;;;;;8.48;3.47;;;12.30;99.90;;;;;;4954843;28;20050;-82
2023/10/04 05:01:14;;;;;;;10.85;2.90;;;12.40;99.90;;;;;;4972272;28;20045;-82
2023/10/04 05:03:41;;;;;;;9.45;3.40;;;12.30;99.90;;;;;;4972090;28;20495;-82
2023/10/04 05:06:09;;;;;;;11.50;3.33;;;12.40;99.90;;;;;;4972081;28;20034;-82
2023/10/04 05:08:36;;;;;;;10.00;3.42;;;12.40;99.90;;;;;;4972247;28;20121;-82
2023/10/04 05:11:11;;;;;;;11.93;3.22;;;12.40;99.90;;;;;;4972027;28;20043;-82
2023/10/04 05:13:37;;;;;;;7.38;3.33;;;12.40;99.90;;;;;;4955874;28;20081;-82
2023/10/04 05:16:04;;;;;;;13.65;3.10;;;12.40;99.90;;;;;;4942229;29;20079;-82
2023/10/04 05:18:30;;;;;;;7.88;3.22;;;12.40;99.90;;;;;;4936797;29;20040;-82
2023/10/04 05:20:56;;;;;;;9.45;3.28;;;12.40;99.90;;;;;;4946827;28;20060;-83
2023/10/04 05:23:24;;;;;;;8.45;3.13;;;12.40;99.90;;;;;;4936643;29;20048;-81
2023/10/04 05:25:53;;;;;;;10.52;3.30;;;12.40;99.90;;;;;;4936838;29;20035;-81
2023/10/04 05:28:20;;;;;;;7.90;3.10;;;12.40;99.90;;;;;;4971452;28;20041;-81
2023/10/04 05:30:46;;;;;;;8.80;3.28;;;12.40;99.90;;;;;;4955754;28;20550;-81
2023/10/04 05:33:14;;;;;;;9.25;3.22;;;12.40;99.90;;;;;;4973021;28;20049;-82
2023/10/04 05:35:42;;;;;;;11.20;2.88;;;12.40;99.90;;;;;;4971745;28;20574;-82
2023/10/04 05:38:08;;;;;;;11.25;3.50;;;12.40;99.90;;;;;;4966629;28;20067;-82
2023/10/04 05:40:35;;;;;;;10.63;3.70;;;12.40;99.90;;;;;;4972967;28;20399;-82
2023/10/04 05:43:03;;;;;;;7.18;3.08;;;12.40;99.90;;;;;;4946809;28;20458;-82
2023/10/04 05:45:29;;;;;;;9.27;3.10;;;12.40;99.90;;;;;;4970840;28;20463;-82
2023/10/04 05:47:55;;;;;;;10.52;3.08;;;12.40;99.90;;;;;;4938821;28;20078;-82
2023/10/04 05:50:22;;;;;;;9.93;3.17;;;12.50;99.90;;;;;;4972739;28;20054;-81
2023/10/04 05:52:49;;;;;;;7.80;3.40;;;12.50;99.90;;;;;;4955711;28;20484;-82
2023/10/04 05:55:16;;;;;;;10.40;3.28;;;12.50;99.90;;;;;;4972493;28;20594;-82
2023/10/04 05:57:47;;;;;;;10.63;3.30;;;12.50;99.90;;;;;;4955159;28;20054;-81
2023/10/04 06:00:37;;;;;;;10.95;3.72;;;12.50;99.90;;;;;;4955382;28;20334;-82
2023/10/04 06:03:04;;;;;;;10.68;3.45;;;12.50;99.90;;;;;;4971091;28;20057;-82
2023/10/04 06:05:32;;;;;;;14.25;4.68;;;12.50;99.90;;;;;;4971887;28;20386;-82
2023/10/04 06:07:59;;;;;;;16.08;3.90;;;12.50;99.90;;;;;;4964011;28;20100;-82
2023/10/04 06:10:25;;;;;;;8.63;3.55;;;12.50;99.90;;;;;;4942391;28;20041;-82
2023/10/04 06:12:56;;;;;;;7.95;3.05;;;12.50;99.90;;;;;;4975156;28;20133;-82
2023/10/04 06:15:24;;;;;;;7.88;3.95;;;12.40;99.90;;;;;;4958500;28;20035;-82
2023/10/04 06:17:51;;;;;;;8.55;3.53;;;12.50;99.90;;;;;;4973122;28;20065;-82
2023/10/04 06:23:05;;;;;;;9.90;3.90;;;12.50;99.90;;;;;;4975149;28;20086;-80
2023/10/04 06:25:32;;;;;;;10.10;3.58;;;12.50;99.90;;;;;;4939897;29;20043;-82
2023/10/04 06:27:59;;;;;;;8.20;3.28;;;12.50;99.90;;;;;;4956983;28;20118;-82
2023/10/04 06:30:27;;;;;;;8.60;3.80;;;12.60;99.90;;;;;;4974468;28;20039;-82
2023/10/04 06:32:59;;;;;;;12.27;3.83;;;12.60;99.90;;;;;;4973184;28;20042;-81
2023/10/04 06:35:26;;;;;;;10.93;4.15;;;12.60;99.90;;;;;;4967016;28;20085;-82
2023/10/04 06:37:57;;;;;;;6.82;3.72;;;12.60;99.90;;;;;;4958148;28;20118;-82
2023/10/04 06:40:24;;;;;;;9.85;3.60;;;12.60;99.90;;;;;;4974456;28;20717;-82
2023/10/04 06:42:52;;;;;;;13.75;4.25;;;12.60;99.90;;;;;;4975407;28;20105;-81
2023/10/04 06:45:20;;;;;;;8.95;3.60;;;12.60;99.90;;;;;;4954583;28;20047;-81
2023/10/04 06:47:49;;;;;;;10.93;4.05;;;12.70;99.90;;;;;;4958299;28;20053;-82
2023/10/04 06:50:20;;;;;;;9.70;3.60;;;12.70;99.90;;;;;;4952882;28;20090;-81
2023/10/04 06:52:47;;;;;;;11.18;3.95;;;12.80;99.90;;;;;;4956981;28;20042;-82
2023/10/04 06:55:15;;;;;;;11.13;4.07;;;12.80;99.90;;;;;;4956157;28;20039;-82
2023/10/04 06:57:41;;;;;;;13.50;4.15;;;12.80;99.90;;;;;;4971975;28;20125;-81
2023/10/04 07:00:15;;;;;;;9.95;3.50;;;12.90;99.90;;;;;;4956502;28;20121;-81
2023/10/04 07:02:49;;;;;;;9.00;3.80;;;13.00;99.90;;;;;;4972143;28;20039;-82
2023/10/04 07:05:19;;;;;;;11.60;3.80;;;13.00;99.90;;;;;;4973289;28;20046;-82
2023/10/04 07:07:51;;;;;;;11.00;3.88;;;13.10;99.90;;;;;;4956515;28;20043;-82
2023/10/04 07:10:20;;;;;;;8.07;3.50;;;13.20;99.90;;;;;;4952559;29;20039;-82
2023/10/04 07:12:47;;;;;;;11.15;4.00;;;13.20;99.90;;;;;;4973076;28;20039;-82
2023/10/04 07:15:14;;;;;;;10.80;3.90;;;13.30;99.90;;;;;;4973487;28;20039;-82
2023/10/04 07:17:41;;;;;;;10.65;4.03;;;13.30;99.90;;;;;;4958035;28;20050;-82
2023/10/04 07:20:14;;;;;;;11.45;3.72;;;13.30;99.90;;;;;;4939627;28;20508;-80
2023/10/04 07:22:50;;;;;;;5.63;3.35;;;13.40;99.90;;;;;;4973524;28;20039;-82
2023/10/04 07:25:17;;;;;;;10.82;3.97;;;13.50;99.90;;;;;;4947440;28;20034;-80
2023/10/04 07:27:44;;;;;;;12.05;3.78;;;13.50;99.90;;;;;;4973056;28;20054;-82
2023/10/04 07:30:15;;;;;;;11.77;3.72;;;13.50;99.90;;;;;;4954953;28;20035;-82
2023/10/04 07:32:45;;;;;;;10.13;4.25;;;13.50;99.90;;;;;;4941879;28;20203;-81
2023/10/04 07:35:13;;;;;;;9.52;3.97;;;13.60;99.90;;;;;;4973443;28;20431;-81
2023/10/04 07:37:42;;;;;;;10.20;3.80;;;13.60;99.90;;;;;;4940754;28;20392;-81
2023/10/04 07:40:09;;;;;;;11.30;3.90;;;13.70;99.90;;;;;;4940309;28;20414;-80
2023/10/04 07:42:39;;;;;;;9.75;3.65;;;13.70;99.90;;;;;;4953497;28;20039;-81
2023/10/04 07:45:10;;;;;;;11.68;3.88;;;13.80;99.90;;;;;;4953051;29;20134;-83
2023/10/04 07:47:37;;;;;;;9.60;3.28;;;13.90;99.90;;;;;;4966510;28;20418;-82
2023/10/04 07:50:09;;;;;;;10.20;4.05;;;13.90;99.90;;;;;;4971503;28;20801;-80
2023/10/04 07:52:37;;;;;;;10.70;4.07;;;14.00;99.90;;;;;;4950118;28;20511;-81
2023/10/04 07:55:05;;;;;;;9.55;3.75;;;14.00;99.90;;;;;;4972524;28;20050;-82
2023/10/04 07:57:35;;;;;;;10.52;3.50;;;14.10;99.90;;;;;;4950189;28;20042;-81
2023/10/04 08:00:06;;;;;;;10.45;3.90;;;14.20;99.90;;;;;;4936516;28;20035;-81
2023/10/04 08:02:31;;;;;;;11.10;3.85;;;14.20;99.90;;;;;;4964494;28;20038;-81
2023/10/04 08:04:57;;;;;;;13.48;4.03;;;14.20;99.90;;;;;;4967223;28;20051;-82
2023/10/04 08:07:23;;;;;;;11.02;3.92;;;14.30;99.90;;;;;;4950771;28;20070;-81
2023/10/04 08:09:49;;;;;;;12.77;4.05;;;14.40;99.90;;;;;;4951976;28;20047;-80
2023/10/04 08:12:15;;;;;;;13.38;5.40;;;14.50;99.90;;;;;;4965903;28;20513;-81
2023/10/04 08:14:40;;;;;;;12.38;4.03;;;14.50;99.90;;;;;;4951046;28;20038;-81
2023/10/04 08:17:06;;;;;;;13.07;4.10;;;14.50;99.90;;;;;;4950068;28;20035;-80
2023/10/04 08:19:33;;;;;;;12.57;4.20;;;14.60;99.90;;;;;;4949196;28;20038;-81
2023/10/04 08:21:58;;;;;;;12.55;4.05;;;14.60;99.90;;;;;;4968847;28;20836;-81
2023/10/04 08:24:26;;;;;;;13.30;4.30;;;14.70;99.90;;;;;;4936775;28;20042;-80
2023/10/04 08:26:52;;;;;;;13.10;4.20;;;14.70;99.90;;;;;;4965005;28;20476;-81
2023/10/04 08:29:17;;;;;;;11.00;3.95;;;14.80;99.90;;;;;;4949384;28;20046;-81
2023/10/04 08:31:43;;;;;;;11.43;3.95;;;14.90;99.90;;;;;;4933663;28;20085;-82
2023/10/04 08:34:09;;;;;;;13.13;4.38;;;15.00;99.90;;;;;;4962778;28;20050;-82
2023/10/04 08:36:37;;;;;;;13.82;3.90;;;15.10;99.90;;;;;;4946022;28;20055;-82
2023/10/04 08:39:10;;;;;;;11.77;4.00;;;15.20;99.90;;;;;;4965872;28;20051;-81
2023/10/04 08:41:37;;;;;;;10.88;3.50;;;15.20;99.90;;;;;;4952107;28;20046;-81
2023/10/04 08:44:03;;;;;;;12.93;4.20;;;15.30;99.90;;;;;;4935776;28;20046;-82
2023/10/04 08:46:31;;;;;;;11.40;3.63;;;15.50;99.90;;;;;;4967632;28;20419;-81
2023/10/04 08:48:58;;;;;;;11.00;3.40;;;15.50;99.90;;;;;;4955065;28;20065;-82
2023/10/04 08:51:39;;;;;;;14.88;4.20;;;15.50;99.90;;;;;;4946710;28;20047;-82
2023/10/04 08:54:13;;;;;;;13.05;4.50;;;15.70;99.90;;;;;;4947184;28;20467;-81
2023/10/04 08:56:48;;;;;;;10.80;4.00;;;15.80;99.90;;;;;;4965635;28;20186;-81
2023/10/04 08:59:14;;;;;;;10.73;3.88;;;15.90;99.90;;;;;;4966425;28;20046;-81
2023/10/04 09:01:41;;;;;;;15.35;4.05;;;15.90;99.90;;;;;;4946202;28;20054;-81
2023/10/04 09:04:09;;;;;;;11.02;3.80;;;15.90;99.90;;;;;;4971468;28;20117;-82
2023/10/04 09:06:36;;;;;;;8.70;4.13;;;16.00;99.90;;;;;;4952733;28;20118;-81
2023/10/04 09:09:05;;;;;;;14.82;4.10;;;16.00;99.90;;;;;;4954108;28;20144;-81
2023/10/04 09:11:32;;;;;;;10.05;3.33;;;16.00;99.90;;;;;;4955760;28;20397;-81
2023/10/04 09:13:58;;;;;;;12.85;4.32;;;16.00;99.90;;;;;;4956352;28;20046;-82
2023/10/04 09:16:28;;;;;;;12.50;4.43;;;16.10;99.90;;;;;;4955617;28;20406;-82
2023/10/04 09:19:19;;;;;;;15.02;4.05;;;16.20;99.90;;;;;;4952097;29;20491;-81
2023/10/04 09:21:46;;;;;;;13.32;4.43;;;16.30;99.90;;;;;;4969096;28;20050;-81
2023/10/04 09:24:13;;;;;;;10.95;3.92;;;16.30;99.90;;;;;;4955026;28;20035;-81
2023/10/04 09:27:01;;;;;;;13.20;4.10;;;16.40;99.90;;;;;;4953109;28;20451;-81
2023/10/04 09:29:30;;;;;;;10.98;4.30;;;16.30;99.90;;;;;;4936482;28;20130;-82
2023/10/04 09:31:56;;;;;;;10.65;3.78;;;16.40;99.90;;;;;;4970203;28;20089;-82
2023/10/04 09:34:25;;;;;;;10.95;4.13;;;16.40;99.90;;;;;;4941223;28;20039;-82
2023/10/04 09:36:52;;;;;;;10.73;3.92;;;16.40;99.90;;;;;;4955465;28;20422;-82
2023/10/04 09:39:24;;;;;;;13.40;4.45;;;16.40;99.90;;;;;;4956015;28;20113;-82
2023/10/04 09:41:55;;;;;;;10.73;4.32;;;16.50;99.90;;;;;;4956659;28;20047;-83
2023/10/04 09:44:29;;;;;;;14.52;4.47;;;16.50;99.90;;;;;;4959306;28;20090;-82
2023/10/04 09:47:00;;;;;;;10.63;3.97;;;16.60;99.90;;;;;;4949760;29;20070;-82
2023/10/04 09:49:34;;;;;;;11.55;4.22;;;16.60;99.90;;;;;;4954676;29;20031;-82
2023/10/04 09:52:13;;;;;;;13.20;5.13;;;16.60;99.90;;;;;;4983005;28;20042;-82
2023/10/04 09:54:39;;;;;;;13.35;4.20;;;16.70;99.90;;;;;;4959552;28;20460;-83
2023/10/04 09:57:12;;;;;;;11.23;3.70;;;16.70;99.90;;;;;;4957777;28;20398;-82
2023/10/04 09:59:38;;;;;;;11.40;3.85;;;16.70;99.90;;;;;;4940246;29;20051;-81
2023/10/04 10:02:09;;;;;;;11.07;4.10;;;16.70;99.90;;;;;;4976881;28;20371;-81
2023/10/04 10:04:43;;;;;;;10.93;3.80;;;16.70;99.90;;;;;;4959152;28;20043;-82
2023/10/04 10:07:25;;;;;;;9.80;3.72;;;16.80;99.90;;;;;;4959177;28;20419;-81
2023/10/04 10:10:05;;;;;;;12.90;4.80;;;17.00;99.90;;;;;;4934695;29;20035;-81
2023/10/04 10:12:35;;;;;;;10.25;4.28;;;17.00;99.90;;;;;;4970063;28;20043;-83
2023/10/04 10:15:04;;;;;;;11.20;4.32;;;17.00;99.90;;;;;;4942412;28;20058;-82
2023/10/04 10:17:31;;;;;;;10.57;4.10;;;17.00;99.90;;;;;;4959113;28;20050;-81
2023/10/04 10:20:01;;;;;;;12.35;4.18;;;17.10;99.90;;;;;;4953168;28;20039;-82
2023/10/04 10:22:26;;;;;;;10.75;4.18;;;17.10;99.90;;;;;;4961341;28;20379;-81
2023/10/04 10:24:55;;;;;;;12.25;4.50;;;17.10;99.90;;;;;;4950145;28;20075;-82
2023/10/04 10:27:24;;;;;;;11.50;4.38;;;17.10;99.90;;;;;;4972370;28;20070;-81
2023/10/04 10:29:51;;;;;;;10.57;4.00;;;17.10;99.90;;;;;;4956860;28;20046;-83
2023/10/04 10:32:20;;;;;;;13.60;4.07;;;17.00;99.90;;;;;;4958526;28;20035;-81
2023/10/04 10:34:57;;;;;;;12.95;4.22;;;16.90;99.90;;;;;;4958448;28;20077;-82
2023/10/04 10:37:25;;;;;;;15.98;4.45;;;16.80;99.90;;;;;;4955096;28;20106;-82
2023/10/04 10:40:06;;;;;;;9.88;4.63;;;16.70;99.90;;;;;;4974698;28;20054;-81
2023/10/04 10:43:07;;;;;;;10.70;4.07;;;16.70;99.90;;;;;;4943957;29;20079;-82
2023/10/04 10:45:33;;;;;;;13.05;4.07;;;16.60;99.90;;;;;;4936831;28;20042;-82
2023/10/04 10:48:01;;;;;;;13.90;4.00;;;16.60;99.90;;;;;;4950423;28;20495;-83
2023/10/04 10:50:37;;;;;;;10.85;4.35;;;16.50;99.90;;;;;;4957848;28;20089;-82
2023/10/04 10:53:10;;;;;;;11.23;4.22;;;16.50;99.90;;;;;;4954305;28;20212;-82
2023/10/04 10:55:40;;;;;;;10.90;4.75;;;16.50;99.90;;;;;;4959239;28;20075;-82
2023/10/04 10:58:08;;;;;;;16.88;5.00;;;16.40;99.90;;;;;;4959421;28;20054;-82
2023/10/04 11:00:35;;;;;;;8.98;4.13;;;16.40;99.90;;;;;;4957845;28;20130;-82
2023/10/04 11:03:05;;;;;;;10.27;4.35;;;16.50;99.90;;;;;;4957867;28;20086;-81
2023/10/04 11:05:31;;;;;;;13.15;4.95;;;16.50;99.90;;;;;;4954712;29;20518;-81
2023/10/04 11:07:57;;;;;;;9.30;3.95;;;16.50;99.90;;;;;;4954177;28;20043;-81
2023/10/04 11:10:25;;;;;;;10.90;4.05;;;16.50;99.90;;;;;;4956190;28;20190;-82
2023/10/04 11:12:55;;;;;;;12.90;4.88;;;16.50;99.90;;;;;;4970855;28;20433;-82
2023/10/04 11:15:26;;;;;;;12.50;5.45;;;16.50;99.90;;;;;;4955647;28;20039;-81
2023/10/04 11:17:53;;;;;;;13.30;4.47;;;16.50;99.90;;;;;;4964689;28;20073;-82
2023/10/04 11:20:20;;;;;;;11.43;4.25;;;16.50;99.90;;;;;;4957444;28;20137;-81
2023/10/04 11:22:48;;;;;;;12.85;4.65;;;16.50;99.90;;;;;;4957156;28;20070;-83
2023/10/04 11:25:16;;;;;;;10.63;4.05;;;16.50;99.90;;;;;;4941834;28;20050;-82
2023/10/04 11:27:43;;;;;;;13.63;4.55;;;16.50;99.90;;;;;;4939093;28;20050;-82
2023/10/04 11:30:11;;;;;;;10.52;4.70;;;16.60;99.90;;;;;;4956682;28;20173;-82
2023/10/04 11:32:58;;;;;;;13.73;4.20;;;16.60;99.90;;;;;;4973021;28;20035;-81
2023/10/04 11:35:34;;;;;;;12.52;5.05;;;16.60;99.90;;;;;;4957583;28;20042;-82
2023/10/04 11:38:05;;;;;;;14.27;4.55;;;16.60;99.90;;;;;;4957004;28;20104;-82
2023/10/04 11:40:31;;;;;;;12.32;4.78;;;16.60;99.90;;;;;;4972899;28;20084;-82
2023/10/04 11:43:03;;;;;;;10.63;5.22;;;16.60;99.90;;;;;;4968462;28;20035;-80
2023/10/04 11:45:30;;;;;;;8.93;3.88;;;16.60;99.90;;;;;;4962565;28;20121;-81
2023/10/04 11:48:05;;;;;;;10.40;4.32;;;16.60;99.90;;;;;;4956151;28;20045;-82
2023/10/04 11:50:47;;;;;;;14.02;4.72;;;16.60;99.90;;;;;;4953287;28;20031;-81
2023/10/04 11:53:13;;;;;;;14.07;4.85;;;16.60;99.90;;;;;;4967135;28;20050;-81
2023/10/04 11:55:39;;;;;;;10.77;4.63;;;16.70;99.90;;;;;;4954324;29;20080;-82
2023/10/04 11:58:06;;;;;;;15.20;5.05;;;16.70;99.90;;;;;;4951167;28;20043;-81
2023/10/04 12:00:33;;;;;;;13.57;4.55;;;16.70;99.90;;;;;;4957129;28;20517;-82
2023/10/04 12:02:59;;;;;;;14.65;4.78;;;16.70;99.90;;;;;;4973226;28;20068;-82
2023/10/04 12:05:26;;;;;;;14.70;5.07;;;16.70;99.90;;;;;;4972794;28;20556;-80
2023/10/04 12:07:54;;;;;;;13.20;4.82;;;16.80;99.90;;;;;;4972032;28;20387;-82
2023/10/04 12:10:21;;;;;;;10.60;4.75;;;16.80;99.90;;;;;;4955000;28;20502;-82
2023/10/04 12:12:47;;;;;;;11.27;4.47;;;16.80;99.90;;;;;;4955151;28;20034;-81
2023/10/04 12:15:14;;;;;;;10.02;3.90;;;16.70;99.90;;;;;;4969200;28;20046;-80
2023/10/04 12:17:40;;;;;;;10.35;4.28;;;16.70;99.90;;;;;;4971931;28;20125;-82
2023/10/04 12:20:11;;;;;;;12.43;3.97;;;16.70;99.90;;;;;;4969506;28;20190;-82
2023/10/04 12:22:37;;;;;;;12.13;4.45;;;16.60;99.90;;;;;;4971977;28;20074;-81
2023/10/04 12:25:04;;;;;;;11.20;4.68;;;16.60;99.90;;;;;;4970000;28;20047;-82
2023/10/04 12:27:30;;;;;;;10.55;4.18;;;16.60;99.90;;;;;;4953678;28;20034;-82
2023/10/04 12:29:57;;;;;;;12.90;4.45;;;16.60;99.90;;;;;;4967865;28;20079;-81
2023/10/04 12:32:23;;;;;;;10.48;4.90;;;16.60;99.90;;;;;;4969427;28;20038;-81
2023/10/04 12:34:49;;;;;;;10.32;4.35;;;16.60;99.90;;;;;;4955631;28;20118;-82
2023/10/04 12:37:14;;;;;;;11.50;4.28;;;16.60;99.90;;;;;;4966250;28;20138;-82
2023/10/04 12:39:43;;;;;;;14.38;4.25;;;16.60;99.90;;;;;;4972063;28;20042;-82
2023/10/04 12:42:09;;;;;;;9.57;4.65;;;16.60;99.90;;;;;;4955586;28;20935;-81
2023/10/04 12:44:41;;;;;;;12.70;4.68;;;16.70;99.90;;;;;;4971042;28;20043;-82
2023/10/04 12:47:08;;;;;;;10.63;4.57;;;16.70;99.90;;;;;;4971482;28;20054;-82
2023/10/04 12:49:34;;;;;;;11.55;4.50;;;16.70;99.90;;;;;;4953772;28;20045;-81
2023/10/04 12:52:00;;;;;;;10.40;4.38;;;16.80;99.90;;;;;;4954475;28;20502;-82